createdAt,value
2022-08-20T00:02:10.369Z,13.77
2022-08-20T00:04:39.475Z,13.00
2022-08-20T00:07:07.343Z,13.73
2022-08-20T00:09:36.400Z,13.20
2022-08-20T00:12:06.280Z,13.90
2022-08-20T00:14:35.202Z,14.57
2022-08-20T00:17:03.919Z,14.20
2022-08-20T00:19:31.047Z,14.67
2022-08-20T00:21:58.651Z,15.27
2022-08-20T00:24:26.344Z,15.70
2022-08-20T00:26:53.542Z,16.30
2022-08-20T00:29:22.409Z,15.80
2022-08-20T00:31:50.709Z,16.10
2022-08-20T00:34:18.154Z,16.67
2022-08-20T00:36:45.263Z,17.53
2022-08-20T00:39:12.398Z,16.67
2022-08-20T00:41:39.561Z,18.07
2022-08-20T00:44:21.971Z,17.20
2022-08-20T00:46:50.728Z,17.77
2022-08-20T00:49:29.151Z,18.30
2022-08-20T00:52:16.640Z,17.33
2022-08-20T00:54:57.448Z,18.80
2022-08-20T00:57:43.805Z,19.73
2022-08-20T01:00:34.683Z,18.03
2022-08-20T01:03:02.234Z,18.50
2022-08-20T01:05:30.240Z,17.70
2022-08-20T01:07:57.954Z,17.77
2022-08-20T01:10:30.105Z,16.77
2022-08-20T01:12:59.854Z,17.60
2022-08-20T01:15:31.880Z,15.50
2022-08-20T01:18:01.961Z,15.57
2022-08-20T01:20:38.741Z,15.27
2022-08-20T01:23:30.438Z,15.63
2022-08-20T01:26:06.321Z,14.20
2022-08-20T01:28:46.826Z,14.70
2022-08-20T01:31:25.814Z,15.07
2022-08-20T01:33:56.383Z,13.60
2022-08-20T01:36:46.319Z,16.00
2022-08-20T01:39:19.138Z,15.60
2022-08-20T01:42:07.767Z,14.30
2022-08-20T01:44:38.014Z,14.10
2022-08-20T01:47:24.753Z,12.40
2022-08-20T01:49:59.816Z,13.67
2022-08-20T01:53:19.301Z,12.50
2022-08-20T01:55:47.213Z,10.83
2022-08-20T01:58:14.539Z,11.43
2022-08-20T02:00:42.221Z,9.77
2022-08-20T02:03:09.440Z,9.40
2022-08-20T02:05:36.686Z,9.03
2022-08-20T02:08:05.358Z,10.93
2022-08-20T02:10:33.379Z,11.00
2022-08-20T02:13:02.285Z,10.90
2022-08-20T02:15:34.954Z,11.10
2022-08-20T02:18:12.865Z,10.40
2022-08-20T02:20:41.484Z,11.87
2022-08-20T02:23:11.928Z,12.30
2022-08-20T02:25:41.713Z,13.00
2022-08-20T02:28:14.111Z,12.03
2022-08-20T02:30:48.085Z,14.13
2022-08-20T02:33:18.656Z,14.70
2022-08-20T02:35:49.277Z,14.00
2022-08-20T02:38:17.311Z,14.87
2022-08-20T02:40:46.487Z,14.47
2022-08-20T02:43:14.552Z,14.50
2022-08-20T02:45:44.149Z,14.70
2022-08-20T02:48:21.409Z,14.03
2022-08-20T02:50:57.627Z,16.47
2022-08-20T02:53:26.260Z,14.40
2022-08-20T02:55:53.402Z,15.30
2022-08-20T02:58:21.617Z,15.23
2022-08-20T03:00:49.156Z,17.00
2022-08-20T03:03:22.342Z,17.07
2022-08-20T03:05:53.235Z,16.40
2022-08-20T03:08:22.005Z,16.50
2022-08-20T03:10:50.512Z,17.13
2022-08-20T03:13:18.685Z,18.67
2022-08-20T03:15:54.221Z,18.40
2022-08-20T03:18:28.569Z,18.67
2022-08-20T03:20:55.585Z,19.03
2022-08-20T03:23:23.206Z,19.97
2022-08-20T03:25:50.505Z,20.43
2022-08-20T03:28:19.493Z,19.23
2022-08-20T03:30:47.960Z,19.87
2022-08-20T03:33:16.317Z,20.73
2022-08-20T03:35:43.817Z,21.30
2022-08-20T03:38:14.346Z,22.67
2022-08-20T03:40:42.600Z,24.20
2022-08-20T03:43:10.321Z,22.83
2022-08-20T03:45:40.432Z,21.97
2022-08-20T03:48:09.276Z,24.17
2022-08-20T03:50:36.463Z,25.80
2022-08-20T03:53:04.686Z,24.27
2022-08-20T03:55:32.758Z,24.57
2022-08-20T03:58:04.267Z,23.33
2022-08-20T04:00:49.858Z,24.90
2022-08-20T04:03:17.946Z,25.30
2022-08-20T04:05:46.275Z,23.43
2022-08-20T04:08:22.192Z,25.17
2022-08-20T04:10:51.153Z,24.97
2022-08-20T04:13:20.980Z,25.07
2022-08-20T04:15:55.246Z,25.37
2022-08-20T04:18:25.757Z,25.40
2022-08-20T04:20:54.323Z,23.60
2022-08-20T04:23:22.580Z,23.83
2022-08-20T04:25:49.807Z,23.70
2022-08-20T04:28:30.106Z,23.40
2022-08-20T04:31:01.033Z,23.43
2022-08-20T04:33:34.204Z,23.57
2022-08-20T04:36:05.889Z,24.50
2022-08-20T04:38:47.957Z,23.30
2022-08-20T04:41:22.775Z,21.83
2022-08-20T04:43:55.989Z,23.17
2022-08-20T04:46:27.698Z,22.03
2022-08-20T04:48:56.616Z,21.53
2022-08-20T04:51:28.046Z,22.60
2022-08-20T04:53:57.392Z,23.00
2022-08-20T04:56:31.079Z,23.23
2022-08-20T04:59:01.465Z,23.40
2022-08-20T05:01:28.970Z,23.67
2022-08-20T05:03:57.858Z,23.20
2022-08-20T05:06:29.976Z,23.30
2022-08-20T05:09:00.301Z,23.03
2022-08-20T05:11:33.807Z,24.37
2022-08-20T05:14:03.926Z,23.13
2022-08-20T05:16:32.964Z,23.27
2022-08-20T05:18:59.973Z,23.27
2022-08-20T05:21:26.948Z,24.57
2022-08-20T05:23:54.000Z,23.63
2022-08-20T05:26:21.054Z,21.83
2022-08-20T05:28:58.024Z,22.60
2022-08-20T05:31:32.602Z,21.53
2022-08-20T05:34:12.516Z,21.37
2022-08-20T05:36:43.328Z,20.37
2022-08-20T05:39:11.129Z,22.90
2022-08-20T05:41:40.288Z,21.80
2022-08-20T05:44:13.215Z,21.97
2022-08-20T05:46:42.746Z,22.00
2022-08-20T05:49:20.845Z,23.07
2022-08-20T05:51:49.823Z,23.17
2022-08-20T05:54:16.893Z,27.53
2022-08-20T05:56:44.145Z,27.10
2022-08-20T05:59:12.615Z,25.10
2022-08-20T06:01:40.929Z,29.70
2022-08-20T06:04:32.045Z,30.87
2022-08-20T06:07:05.839Z,33.90
2022-08-20T06:09:35.068Z,22.00
2022-08-20T06:12:06.179Z,22.73
2022-08-20T06:14:33.757Z,23.20
2022-08-20T06:17:09.682Z,22.70
2022-08-20T06:19:38.259Z,23.60
2022-08-20T06:22:17.634Z,21.80
2022-08-20T06:24:47.827Z,22.47
2022-08-20T06:27:19.135Z,22.27
2022-08-20T06:29:46.388Z,21.00
2022-08-20T06:32:14.166Z,23.83
2022-08-20T06:34:50.243Z,21.50
2022-08-20T06:37:30.783Z,21.50
2022-08-20T06:40:07.287Z,40.37
2022-08-20T06:42:35.193Z,27.40
2022-08-20T06:45:05.743Z,28.83
2022-08-20T06:47:34.273Z,22.40
2022-08-20T06:50:01.382Z,23.17
2022-08-20T06:52:48.078Z,21.43
2022-08-20T06:55:17.530Z,21.80
2022-08-20T06:57:44.770Z,20.37
2022-08-20T07:00:19.437Z,21.73
2022-08-20T07:02:48.167Z,21.20
2022-08-20T07:05:16.432Z,22.00
2022-08-20T07:07:49.501Z,21.70
2022-08-20T07:10:22.439Z,21.20
2022-08-20T07:12:51.052Z,21.33
2022-08-20T07:15:21.928Z,20.40
2022-08-20T07:18:01.827Z,21.63
2022-08-20T07:20:31.977Z,22.33
2022-08-20T07:23:00.619Z,21.60
2022-08-20T07:25:29.425Z,22.83
2022-08-20T07:28:09.344Z,21.87
2022-08-20T07:30:55.867Z,23.40
2022-08-20T07:33:29.951Z,22.70
2022-08-20T07:35:59.040Z,22.00
2022-08-20T07:38:30.198Z,23.40
2022-08-20T07:41:05.299Z,22.70
2022-08-20T07:43:33.424Z,21.57
2022-08-20T07:46:03.136Z,23.90
2022-08-20T07:48:31.997Z,24.67
2022-08-20T07:51:06.336Z,26.43
2022-08-20T07:53:37.021Z,26.03
2022-08-20T07:56:11.754Z,24.20
2022-08-20T07:58:50.670Z,28.53
2022-08-20T08:01:26.187Z,28.43
2022-08-20T08:03:53.535Z,27.70
2022-08-20T08:06:29.793Z,25.80
2022-08-20T08:09:06.631Z,25.77
2022-08-20T08:11:37.962Z,25.73
2022-08-20T08:14:08.622Z,24.80
2022-08-20T08:16:37.479Z,28.13
2022-08-20T08:19:09.220Z,30.23
2022-08-20T08:21:36.215Z,29.30
2022-08-20T08:24:03.756Z,27.73
2022-08-20T08:26:30.828Z,25.10
2022-08-20T08:29:00.753Z,28.10
2022-08-20T08:31:27.820Z,24.87
2022-08-20T08:33:55.892Z,28.63
2022-08-20T08:36:22.868Z,28.40
2022-08-20T08:38:49.907Z,29.27
2022-08-20T08:41:30.095Z,27.10
2022-08-20T08:44:06.755Z,27.07
2022-08-20T08:46:40.655Z,29.57
2022-08-20T08:49:11.772Z,28.17
2022-08-20T08:51:46.302Z,28.10
2022-08-20T08:54:19.264Z,29.93
2022-08-20T08:56:49.937Z,30.10
2022-08-20T08:59:19.665Z,26.83
2022-08-20T09:01:57.310Z,26.53
2022-08-20T09:04:38.831Z,27.47
2022-08-20T09:07:11.015Z,29.40
2022-08-20T09:09:42.444Z,29.50
2022-08-20T09:12:20.352Z,27.20
2022-08-20T09:14:49.603Z,26.70
2022-08-20T09:17:19.896Z,25.80
2022-08-20T09:19:47.183Z,26.40
2022-08-20T09:22:21.678Z,25.70
2022-08-20T09:24:50.014Z,27.70
2022-08-20T09:27:17.292Z,25.00
2022-08-20T09:29:44.472Z,27.30
2022-08-20T09:32:21.006Z,28.87
2022-08-20T09:34:56.062Z,26.67
2022-08-20T09:37:27.198Z,27.03
2022-08-20T09:39:55.211Z,26.90
